createdAt,value
2023-05-09T00:00:24.144Z,996.47
2023-05-09T00:01:24.039Z,996.40
2023-05-09T00:02:24.130Z,996.38
2023-05-09T00:03:24.028Z,996.44
2023-05-09T00:04:24.091Z,996.40
2023-05-09T00:05:24.042Z,996.42
2023-05-09T00:06:23.999Z,996.44
2023-05-09T00:07:24.006Z,996.46
2023-05-09T00:08:23.985Z,996.41
2023-05-09T00:09:23.998Z,996.35
2023-05-09T00:10:23.986Z,996.42
2023-05-09T00:11:23.987Z,996.40
2023-05-09T00:12:23.972Z,996.40
2023-05-09T00:13:24.038Z,996.44
2023-05-09T00:14:23.955Z,996.42
2023-05-09T00:15:23.971Z,996.41
2023-05-09T00:16:24.156Z,996.38
2023-05-09T00:17:23.950Z,996.37
2023-05-09T00:18:23.926Z,996.42
2023-05-09T00:19:24.360Z,996.36
2023-05-09T00:20:23.919Z,996.34
2023-05-09T00:21:23.905Z,996.34
2023-05-09T00:22:23.896Z,996.32
2023-05-09T00:23:23.916Z,996.30
2023-05-09T00:24:23.894Z,996.31
2023-05-09T00:25:23.905Z,996.27
2023-05-09T00:26:23.886Z,996.26
2023-05-09T00:27:23.873Z,996.22
2023-05-09T00:28:23.858Z,996.20
2023-05-09T00:29:23.854Z,996.23
2023-05-09T00:30:23.873Z,996.22
2023-05-09T00:31:23.849Z,996.21
2023-05-09T00:32:23.943Z,996.21
2023-05-09T00:33:23.825Z,996.21
2023-05-09T00:34:23.828Z,996.21
2023-05-09T00:35:23.839Z,996.22
2023-05-09T00:36:23.806Z,996.15
2023-05-09T00:37:23.790Z,996.18
2023-05-09T00:38:23.808Z,996.11
2023-05-09T00:39:23.795Z,996.11
2023-05-09T00:40:23.786Z,996.16
2023-05-09T00:41:23.789Z,996.14
2023-05-09T00:42:23.782Z,996.16
2023-05-09T00:43:23.762Z,996.14
2023-05-09T00:44:23.748Z,996.11
2023-05-09T00:45:23.747Z,996.10
2023-05-09T00:46:23.784Z,996.14
2023-05-09T00:47:23.789Z,996.08
2023-05-09T00:48:23.820Z,996.13
2023-05-09T00:49:23.721Z,996.13
2023-05-09T00:50:23.711Z,996.08
2023-05-09T00:51:23.709Z,996.07
2023-05-09T00:52:23.697Z,996.08
2023-05-09T00:53:23.716Z,996.13
2023-05-09T00:54:23.687Z,996.10
2023-05-09T00:55:23.690Z,996.06
2023-05-09T00:56:23.685Z,996.09
2023-05-09T00:57:23.674Z,996.07
2023-05-09T00:58:23.666Z,996.06
2023-05-09T00:59:23.678Z,996.01
2023-05-09T01:00:23.658Z,996.02
2023-05-09T01:01:23.688Z,996.01
2023-05-09T01:02:23.696Z,996.01
2023-05-09T01:03:23.732Z,996.04
2023-05-09T01:04:23.734Z,996.02
2023-05-09T01:05:23.621Z,996.06
2023-05-09T01:06:23.610Z,995.98
2023-05-09T01:07:23.618Z,995.98
2023-05-09T01:08:24.630Z,995.96
2023-05-09T01:09:23.589Z,996.01
2023-05-09T01:10:23.590Z,995.97
2023-05-09T01:11:23.582Z,995.94
2023-05-09T01:12:23.584Z,995.91
2023-05-09T01:13:23.735Z,995.87
2023-05-09T01:14:23.566Z,995.94
2023-05-09T01:15:23.565Z,995.91
2023-05-09T01:16:23.639Z,995.90
2023-05-09T01:17:23.562Z,995.90
2023-05-09T01:18:23.547Z,995.90
2023-05-09T01:19:23.531Z,995.89
2023-05-09T01:20:23.632Z,995.89
2023-05-09T01:21:23.535Z,995.86
2023-05-09T01:22:23.526Z,995.86
2023-05-09T01:23:23.515Z,995.81
2023-05-09T01:24:23.499Z,995.85
2023-05-09T01:25:23.497Z,995.82
2023-05-09T01:26:23.501Z,995.80
2023-05-09T01:27:23.491Z,995.88
2023-05-09T01:28:23.499Z,995.82
2023-05-09T01:29:23.487Z,995.85
2023-05-09T01:30:23.465Z,995.80
2023-05-09T01:31:23.499Z,995.81
2023-05-09T01:32:23.479Z,995.84
2023-05-09T01:33:23.449Z,995.79
2023-05-09T01:34:23.460Z,995.79
2023-05-09T01:35:23.427Z,995.75
2023-05-09T01:36:23.528Z,995.81
2023-05-09T01:37:23.414Z,995.83
2023-05-09T01:38:23.415Z,995.77
2023-05-09T01:39:23.420Z,995.81
2023-05-09T01:40:23.426Z,995.81
2023-05-09T01:41:23.403Z,995.82
2023-05-09T01:42:23.392Z,995.80
2023-05-09T01:43:23.384Z,995.80
2023-05-09T01:44:23.391Z,995.80
2023-05-09T01:45:23.379Z,995.84
2023-05-09T01:46:23.412Z,995.72
2023-05-09T01:47:23.381Z,995.78
2023-05-09T01:48:23.347Z,995.76
2023-05-09T01:49:23.355Z,995.71
2023-05-09T01:50:23.364Z,995.70
2023-05-09T01:51:23.336Z,995.79
2023-05-09T01:52:23.420Z,995.69
2023-05-09T01:53:23.318Z,995.73
2023-05-09T01:54:23.310Z,995.77
2023-05-09T01:55:23.316Z,995.67
2023-05-09T01:56:23.300Z,995.70
2023-05-09T01:57:23.299Z,995.65
2023-05-09T01:58:23.282Z,995.65
2023-05-09T01:59:23.271Z,995.65
2023-05-09T02:00:23.279Z,995.68
2023-05-09T02:01:23.304Z,995.69
2023-05-09T02:02:23.299Z,995.66
2023-05-09T02:03:23.280Z,995.61
2023-05-09T02:04:23.243Z,995.67
2023-05-09T02:05:23.281Z,995.61
2023-05-09T02:06:23.241Z,995.63
2023-05-09T02:07:23.236Z,995.60
2023-05-09T02:08:23.308Z,995.66
2023-05-09T02:09:23.211Z,995.66
2023-05-09T02:10:23.229Z,995.56
2023-05-09T02:11:23.208Z,995.60
2023-05-09T02:12:23.204Z,995.60
2023-05-09T02:13:23.315Z,995.59
2023-05-09T02:14:23.198Z,995.59
2023-05-09T02:15:23.186Z,995.59
2023-05-09T02:16:23.230Z,995.53
2023-05-09T02:17:23.312Z,995.46
2023-05-09T02:18:23.178Z,995.49
2023-05-09T02:19:23.159Z,995.50
2023-05-09T02:20:23.150Z,995.52
2023-05-09T02:21:23.151Z,995.53
2023-05-09T02:22:23.132Z,995.55
2023-05-09T02:23:23.124Z,995.48
2023-05-09T02:24:23.271Z,995.49
2023-05-09T02:25:23.150Z,995.45
2023-05-09T02:26:23.119Z,995.50
2023-05-09T02:27:23.095Z,995.51
2023-05-09T02:28:23.088Z,995.43
2023-05-09T02:29:23.089Z,995.49
2023-05-09T02:30:23.077Z,995.47
2023-05-09T02:31:23.115Z,995.50
2023-05-09T02:32:23.078Z,995.48
2023-05-09T02:33:23.061Z,995.50
2023-05-09T02:34:23.050Z,995.46
2023-05-09T02:35:23.052Z,995.45
2023-05-09T02:36:23.068Z,995.52
2023-05-09T02:37:23.031Z,995.52
2023-05-09T02:38:23.023Z,995.49
2023-05-09T02:39:23.021Z,995.51
2023-05-09T02:40:23.017Z,995.45
2023-05-09T02:41:23.011Z,995.49
2023-05-09T02:42:23.020Z,995.52
2023-05-09T02:43:22.993Z,995.46
2023-05-09T02:44:22.989Z,995.43
2023-05-09T02:45:22.993Z,995.43
2023-05-09T02:46:23.064Z,995.40
2023-05-09T02:47:23.014Z,995.44
2023-05-09T02:48:22.980Z,995.42
2023-05-09T02:49:31.362Z,995.34
2023-05-09T02:50:24.959Z,995.36
2023-05-09T02:51:22.961Z,995.36
2023-05-09T02:52:22.938Z,995.42
2023-05-09T02:53:22.932Z,995.37
2023-05-09T02:54:22.916Z,995.33
2023-05-09T02:55:22.910Z,995.40
2023-05-09T02:56:23.030Z,995.40
2023-05-09T02:57:22.937Z,995.37
2023-05-09T02:58:22.927Z,995.32
2023-05-09T02:59:22.897Z,995.33
2023-05-09T03:00:22.868Z,995.30
2023-05-09T03:01:22.990Z,995.31
2023-05-09T03:02:22.889Z,995.31
2023-05-09T03:03:22.926Z,995.28
2023-05-09T03:04:22.863Z,995.29
2023-05-09T03:05:22.869Z,995.25
2023-05-09T03:06:22.839Z,995.34
2023-05-09T03:07:22.825Z,995.22
2023-05-09T03:08:22.899Z,995.27
2023-05-09T03:09:22.827Z,995.24
2023-05-09T03:10:22.808Z,995.24
2023-05-09T03:11:22.821Z,995.21
2023-05-09T03:12:22.920Z,995.25
2023-05-09T03:13:22.874Z,995.22
2023-05-09T03:14:22.794Z,995.19
2023-05-09T03:15:22.796Z,995.17
2023-05-09T03:16:22.857Z,995.15
2023-05-09T03:17:22.772Z,995.20
2023-05-09T03:18:22.763Z,995.20
2023-05-09T03:19:22.792Z,995.21
2023-05-09T03:20:22.756Z,995.25
2023-05-09T03:21:22.759Z,995.24
2023-05-09T03:22:22.770Z,995.22
2023-05-09T03:23:22.728Z,995.25
2023-05-09T03:24:22.749Z,995.21
2023-05-09T03:25:22.722Z,995.17
2023-05-09T03:26:22.724Z,995.13
2023-05-09T03:27:22.716Z,995.09
2023-05-09T03:28:22.849Z,995.07
2023-05-09T03:29:22.711Z,995.07
2023-05-09T03:30:22.710Z,995.07
2023-05-09T03:31:22.744Z,995.12
2023-05-09T03:32:23.700Z,995.06
2023-05-09T03:33:22.698Z,995.03
2023-05-09T03:34:22.684Z,995.06
2023-05-09T03:35:22.677Z,995.03
2023-05-09T03:36:22.652Z,995.06
2023-05-09T03:37:23.592Z,995.07
2023-05-09T03:38:22.643Z,995.09
2023-05-09T03:39:22.665Z,995.07
2023-05-09T03:40:22.648Z,995.12
2023-05-09T03:41:22.640Z,995.09
2023-05-09T03:42:22.632Z,995.09
2023-05-09T03:43:22.655Z,995.09
2023-05-09T03:44:23.003Z,995.09
2023-05-09T03:45:22.614Z,995.12
2023-05-09T03:46:22.645Z,995.12
2023-05-09T03:47:22.586Z,995.11
2023-05-09T03:48:22.592Z,995.10
2023-05-09T03:49:22.581Z,995.05
2023-05-09T03:50:22.570Z,995.04
2023-05-09T03:51:22.609Z,995.06
2023-05-09T03:52:22.573Z,995.03
2023-05-09T03:53:22.553Z,995.04
2023-05-09T03:54:22.559Z,995.08
2023-05-09T03:55:22.546Z,995.08
2023-05-09T03:56:22.575Z,995.03
2023-05-09T03:57:22.531Z,995.12
2023-05-09T03:58:22.527Z,995.13
2023-05-09T03:59:22.540Z,995.08
2023-05-09T04:00:22.626Z,995.06
2023-05-09T04:01:22.510Z,995.08
2023-05-09T04:02:22.601Z,995.09
2023-05-09T04:03:22.574Z,995.14
2023-05-09T04:04:22.487Z,995.09
2023-05-09T04:05:22.486Z,995.10
2023-05-09T04:06:22.480Z,995.07
2023-05-09T04:07:22.480Z,995.06
2023-05-09T04:08:22.477Z,995.08
2023-05-09T04:09:22.472Z,995.04
2023-05-09T04:10:22.452Z,995.10
2023-05-09T04:11:22.452Z,995.05
2023-05-09T04:12:22.460Z,995.08
2023-05-09T04:13:22.475Z,995.03
2023-05-09T04:14:22.428Z,995.04
2023-05-09T04:15:22.416Z,995.02
2023-05-09T04:16:22.561Z,995.01
2023-05-09T04:17:22.449Z,994.93
2023-05-09T04:18:22.410Z,994.97
2023-05-09T04:19:22.404Z,994.96
2023-05-09T04:20:22.391Z,994.92
2023-05-09T04:21:22.391Z,994.95
2023-05-09T04:22:22.406Z,994.92
2023-05-09T04:23:22.368Z,994.93
2023-05-09T04:24:22.367Z,994.94
2023-05-09T04:25:22.375Z,994.97
2023-05-09T04:26:22.364Z,994.96
2023-05-09T04:27:22.344Z,995.00
2023-05-09T04:28:22.382Z,995.02
2023-05-09T04:29:22.326Z,995.05
2023-05-09T04:30:22.356Z,994.99
2023-05-09T04:31:22.376Z,994.98
2023-05-09T04:32:22.421Z,995.02
2023-05-09T04:33:22.301Z,995.04
2023-05-09T04:34:22.302Z,995.00
2023-05-09T04:35:22.692Z,994.98
2023-05-09T04:36:22.292Z,994.89
2023-05-09T04:37:22.309Z,994.94
2023-05-09T04:38:22.281Z,994.95
2023-05-09T04:39:22.274Z,994.91
2023-05-09T04:40:22.560Z,994.84
2023-05-09T04:41:22.299Z,994.94
2023-05-09T04:42:22.259Z,994.91
2023-05-09T04:43:22.265Z,994.87
2023-05-09T04:44:22.245Z,994.94
2023-05-09T04:45:22.240Z,994.87
2023-05-09T04:46:24.284Z,994.90
2023-05-09T04:47:22.359Z,994.88
2023-05-09T04:48:22.327Z,994.86
2023-05-09T04:49:22.209Z,994.84
2023-05-09T04:50:22.215Z,994.88
2023-05-09T04:51:22.216Z,994.93
2023-05-09T04:52:22.255Z,994.88
2023-05-09T04:53:22.183Z,994.90
2023-05-09T04:54:22.267Z,994.92
2023-05-09T04:55:22.174Z,994.85
2023-05-09T04:56:22.186Z,994.90
2023-05-09T04:57:22.197Z,994.89
2023-05-09T04:58:22.180Z,994.85
2023-05-09T04:59:22.213Z,994.87
2023-05-09T05:00:22.158Z,994.83
2023-05-09T05:01:22.175Z,994.81
2023-05-09T05:02:22.166Z,994.85
2023-05-09T05:03:22.289Z,994.81
2023-05-09T05:04:22.243Z,994.79
2023-05-09T05:05:24.926Z,994.85
2023-05-09T05:06:23.111Z,994.84
2023-05-09T05:07:22.102Z,994.81
2023-05-09T05:08:22.117Z,994.81
2023-05-09T05:09:22.107Z,994.77
2023-05-09T05:10:22.107Z,994.75
2023-05-09T05:11:22.072Z,994.78
2023-05-09T05:12:22.075Z,994.78
2023-05-09T05:13:22.169Z,994.76
2023-05-09T05:14:22.095Z,994.75
2023-05-09T05:15:22.058Z,994.70
2023-05-09T05:16:22.105Z,994.69
2023-05-09T05:17:22.054Z,994.72
2023-05-09T05:18:22.031Z,994.69
2023-05-09T05:19:22.112Z,994.76
2023-05-09T05:20:22.136Z,994.70
2023-05-09T05:21:22.036Z,994.67
2023-05-09T05:22:22.024Z,994.70
2023-05-09T05:23:21.997Z,994.67
2023-05-09T05:24:22.001Z,994.62
2023-05-09T05:25:22.026Z,994.63
2023-05-09T05:26:21.989Z,994.60
2023-05-09T05:27:21.973Z,994.68
2023-05-09T05:28:21.964Z,994.63
2023-05-09T05:29:21.960Z,994.65
2023-05-09T05:30:22.005Z,994.59
2023-05-09T05:31:21.996Z,994.59
2023-05-09T05:32:22.941Z,994.56
2023-05-09T05:33:21.954Z,994.62
2023-05-09T05:34:21.940Z,994.59
2023-05-09T05:35:21.912Z,994.54
2023-05-09T05:36:22.019Z,994.60
2023-05-09T05:37:21.920Z,994.62
2023-05-09T05:38:21.912Z,994.54
2023-05-09T05:39:21.974Z,994.53
2023-05-09T05:40:21.895Z,994.51
2023-05-09T05:41:21.876Z,994.53
2023-05-09T05:42:21.879Z,994.53
2023-05-09T05:43:21.881Z,994.47
2023-05-09T05:44:21.862Z,994.44
2023-05-09T05:45:21.853Z,994.48
2023-05-09T05:46:21.929Z,994.42
2023-05-09T05:47:21.856Z,994.39
2023-05-09T05:48:21.840Z,994.43
2023-05-09T05:49:21.816Z,994.40
2023-05-09T05:50:21.821Z,994.41
2023-05-09T05:51:21.795Z,994.37
2023-05-09T05:52:21.907Z,994.35
2023-05-09T05:53:21.799Z,994.32
2023-05-09T05:54:21.785Z,994.36
2023-05-09T05:55:21.793Z,994.33
2023-05-09T05:56:21.781Z,994.35
2023-05-09T05:57:21.799Z,994.30
2023-05-09T05:58:21.770Z,994.28
2023-05-09T05:59:21.749Z,994.31
2023-05-09T06:00:21.754Z,994.26
2023-05-09T06:01:21.731Z,994.34
2023-05-09T06:02:21.801Z,994.28
2023-05-09T06:03:21.844Z,994.31
2023-05-09T06:04:21.899Z,994.27
2023-05-09T06:05:21.722Z,994.28
2023-05-09T06:06:21.693Z,994.31
2023-05-09T06:07:21.724Z,994.30
2023-05-09T06:08:21.800Z,994.32
2023-05-09T06:09:21.717Z,994.32
2023-05-09T06:10:21.703Z,994.30
2023-05-09T06:11:21.696Z,994.31
2023-05-09T06:12:21.660Z,994.28
2023-05-09T06:13:21.794Z,994.31
2023-05-09T06:14:21.644Z,994.22
2023-05-09T06:15:21.653Z,994.23
2023-05-09T06:16:21.704Z,994.22
2023-05-09T06:17:21.636Z,994.24
2023-05-09T06:18:21.625Z,994.26
2023-05-09T06:19:21.605Z,994.25
2023-05-09T06:20:21.814Z,994.22
2023-05-09T06:21:21.615Z,994.17
2023-05-09T06:22:21.597Z,994.19
2023-05-09T06:23:21.585Z,994.18
2023-05-09T06:24:34.503Z,994.11
2023-05-09T06:25:23.589Z,994.15
2023-05-09T06:26:21.576Z,994.11
2023-05-09T06:27:21.571Z,994.11
2023-05-09T06:28:21.558Z,994.14
2023-05-09T06:29:21.565Z,994.11
2023-05-09T06:30:26.485Z,994.06
2023-05-09T06:31:25.395Z,994.05
2023-05-09T06:32:21.529Z,994.06
2023-05-09T06:33:21.559Z,994.05
2023-05-09T06:34:21.511Z,994.04
2023-05-09T06:35:21.542Z,993.93
2023-05-09T06:36:21.542Z,993.97
2023-05-09T06:37:21.497Z,993.94
2023-05-09T06:38:21.491Z,993.97
2023-05-09T06:39:21.484Z,993.95
2023-05-09T06:40:21.575Z,993.95
2023-05-09T06:41:21.524Z,993.91
2023-05-09T06:42:21.511Z,993.87
2023-05-09T06:43:21.462Z,993.88
2023-05-09T06:44:21.459Z,993.84
2023-05-09T06:45:21.540Z,993.86
2023-05-09T06:46:21.625Z,993.79
2023-05-09T06:47:21.442Z,993.83
2023-05-09T06:48:21.435Z,993.81
2023-05-09T06:49:21.427Z,993.79
2023-05-09T06:50:21.430Z,993.83
2023-05-09T06:51:21.438Z,993.84
2023-05-09T06:52:21.407Z,993.86
2023-05-09T06:53:21.437Z,993.75
2023-05-09T06:54:21.384Z,993.74
2023-05-09T06:55:21.399Z,993.77
2023-05-09T06:56:21.480Z,993.66
2023-05-09T06:57:21.385Z,993.70
2023-05-09T06:58:21.634Z,993.64
2023-05-09T06:59:21.367Z,993.63
2023-05-09T07:00:21.363Z,993.59
2023-05-09T07:01:21.421Z,993.58
2023-05-09T07:02:21.370Z,993.52
2023-05-09T07:03:21.825Z,993.52
2023-05-09T07:04:21.345Z,993.53
2023-05-09T07:05:21.362Z,993.47
2023-05-09T07:06:21.323Z,993.56
2023-05-09T07:07:21.301Z,993.44
2023-05-09T07:08:21.327Z,993.47
2023-05-09T07:09:21.317Z,993.51
2023-05-09T07:10:21.280Z,993.51
2023-05-09T07:11:21.297Z,993.46
2023-05-09T07:12:21.271Z,993.43
2023-05-09T07:13:21.441Z,993.35
2023-05-09T07:14:21.269Z,993.37
2023-05-09T07:15:32.365Z,993.42
2023-05-09T07:16:23.301Z,993.37
2023-05-09T07:17:24.026Z,993.32
2023-05-09T07:18:22.262Z,993.32
2023-05-09T07:19:21.237Z,993.27
2023-05-09T07:20:21.237Z,993.22
2023-05-09T07:21:21.212Z,993.23
2023-05-09T07:22:21.246Z,993.24
2023-05-09T07:23:21.232Z,993.22
2023-05-09T07:24:21.199Z,993.21
2023-05-09T07:25:21.185Z,993.20
2023-05-09T07:26:21.203Z,993.20
2023-05-09T07:27:21.170Z,993.16
2023-05-09T07:28:21.273Z,993.09
2023-05-09T07:29:21.182Z,993.07
2023-05-09T07:30:21.162Z,993.03
2023-05-09T07:31:21.176Z,993.00
2023-05-09T07:32:21.157Z,993.03
2023-05-09T07:33:21.143Z,993.00
2023-05-09T07:34:21.145Z,993.06
2023-05-09T07:35:21.154Z,993.05
2023-05-09T07:36:21.115Z,993.04
2023-05-09T07:37:21.109Z,993.13
2023-05-09T07:38:21.131Z,993.07
2023-05-09T07:39:21.079Z,993.07
2023-05-09T07:40:21.114Z,993.10
2023-05-09T07:41:21.077Z,993.10
2023-05-09T07:42:21.071Z,993.11
2023-05-09T07:43:21.066Z,993.03
2023-05-09T07:44:21.170Z,993.07
2023-05-09T07:45:23.748Z,993.03
2023-05-09T07:46:21.286Z,992.98
2023-05-09T07:47:21.023Z,992.99
2023-05-09T07:48:21.015Z,992.99
2023-05-09T07:49:21.013Z,992.99
2023-05-09T07:50:21.017Z,992.92
2023-05-09T07:51:21.022Z,992.99
2023-05-09T07:52:21.005Z,993.02
2023-05-09T07:53:20.987Z,992.93
2023-05-09T07:54:20.994Z,992.99
2023-05-09T07:55:20.985Z,992.97
2023-05-09T07:56:20.975Z,993.00
2023-05-09T07:57:21.968Z,992.92
2023-05-09T07:58:20.979Z,992.91
2023-05-09T07:59:20.955Z,992.85
2023-05-09T08:00:21.036Z,992.85
2023-05-09T08:01:20.933Z,992.99
2023-05-09T08:02:20.947Z,992.95
2023-05-09T08:03:21.094Z,992.87
2023-05-09T08:04:20.931Z,992.96
2023-05-09T08:05:20.937Z,992.99
2023-05-09T08:06:20.896Z,992.84
2023-05-09T08:07:20.889Z,992.79
2023-05-09T08:08:21.036Z,992.77
2023-05-09T08:09:20.870Z,992.81
2023-05-09T08:10:20.861Z,992.75
2023-05-09T08:11:20.870Z,992.78
2023-05-09T08:12:20.882Z,992.76
2023-05-09T08:13:20.943Z,992.84
2023-05-09T08:14:20.856Z,992.71
2023-05-09T08:15:20.849Z,992.75
2023-05-09T08:16:21.004Z,992.69
2023-05-09T08:17:20.870Z,992.66
2023-05-09T08:18:20.874Z,992.64
2023-05-09T08:19:20.827Z,992.59
2023-05-09T08:20:20.808Z,992.71
2023-05-09T08:21:22.133Z,992.61
2023-05-09T08:22:21.807Z,992.72
2023-05-09T08:23:20.806Z,992.65
2023-05-09T08:24:20.794Z,992.70
2023-05-09T08:25:20.814Z,992.67
2023-05-09T08:26:20.768Z,992.62
2023-05-09T08:27:20.777Z,992.69
2023-05-09T08:28:21.712Z,992.69
2023-05-09T08:29:20.785Z,992.73
2023-05-09T08:30:20.745Z,992.87
2023-05-09T08:31:20.778Z,992.71
2023-05-09T08:32:20.824Z,992.73
2023-05-09T08:33:20.723Z,992.70
2023-05-09T08:34:20.726Z,992.62
2023-05-09T08:35:20.713Z,992.61
2023-05-09T08:36:20.696Z,992.66
2023-05-09T08:37:20.705Z,992.54
2023-05-09T08:38:20.692Z,992.52
2023-05-09T08:39:20.688Z,992.44
2023-05-09T08:40:20.690Z,992.45
2023-05-09T08:41:20.657Z,992.41
2023-05-09T08:42:20.659Z,992.53
2023-05-09T08:43:20.648Z,992.41
2023-05-09T08:44:20.644Z,992.49
2023-05-09T08:45:20.671Z,992.50
2023-05-09T08:46:20.665Z,992.43
2023-05-09T08:47:20.635Z,992.40
2023-05-09T08:48:20.710Z,992.40
2023-05-09T08:49:20.613Z,992.37
2023-05-09T08:50:20.601Z,992.32
2023-05-09T08:51:20.622Z,992.32
2023-05-09T08:52:20.579Z,992.36
2023-05-09T08:53:20.573Z,992.36
2023-05-09T08:54:22.134Z,992.30
2023-05-09T08:55:21.558Z,992.32
2023-05-09T08:56:20.569Z,992.30
2023-05-09T08:57:20.574Z,992.29
2023-05-09T08:58:20.540Z,992.39
2023-05-09T08:59:20.542Z,992.35
2023-05-09T09:00:21.069Z,992.35
2023-05-09T09:01:20.536Z,992.30
2023-05-09T09:02:20.530Z,992.39
2023-05-09T09:03:20.503Z,992.25
2023-05-09T09:04:20.633Z,992.30
2023-05-09T09:05:39.915Z,992.27
2023-05-09T09:06:22.487Z,992.23
2023-05-09T09:07:20.494Z,992.22
2023-05-09T09:08:20.479Z,992.19
2023-05-09T09:09:20.467Z,992.22
2023-05-09T09:10:20.468Z,992.15
2023-05-09T09:11:20.481Z,992.10
2023-05-09T09:12:20.446Z,992.15
2023-05-09T09:13:20.522Z,992.11
2023-05-09T09:14:20.435Z,992.05
2023-05-09T09:15:20.443Z,991.98
2023-05-09T09:16:20.496Z,992.09
2023-05-09T09:17:20.429Z,992.07
2023-05-09T09:18:20.409Z,991.95
2023-05-09T09:19:20.410Z,991.99
2023-05-09T09:20:20.585Z,991.93
2023-05-09T09:21:20.399Z,991.90
2023-05-09T09:22:20.401Z,991.83
2023-05-09T09:23:20.382Z,991.85
2023-05-09T09:24:20.375Z,991.81
2023-05-09T09:25:20.361Z,991.77
2023-05-09T09:26:20.359Z,991.79
2023-05-09T09:27:20.371Z,991.77
2023-05-09T09:28:20.343Z,991.71
2023-05-09T09:29:20.356Z,991.73
2023-05-09T09:30:20.407Z,991.72
2023-05-09T09:31:20.373Z,991.64
2023-05-09T09:32:20.365Z,991.61
2023-05-09T09:33:21.334Z,991.68
2023-05-09T09:34:20.338Z,991.58
2023-05-09T09:35:20.315Z,991.62
2023-05-09T09:36:20.389Z,991.57
2023-05-09T09:37:20.305Z,991.59
2023-05-09T09:38:20.283Z,991.59
2023-05-09T09:39:20.307Z,991.58
2023-05-09T09:40:20.274Z,991.51
2023-05-09T09:41:20.262Z,991.52
2023-05-09T09:42:20.252Z,991.49
2023-05-09T09:43:20.269Z,991.41
2023-05-09T09:44:20.253Z,991.44
2023-05-09T09:45:20.319Z,991.35
2023-05-09T09:46:20.285Z,991.33
2023-05-09T09:47:20.236Z,991.40
2023-05-09T09:48:20.237Z,991.28
2023-05-09T09:49:20.224Z,991.27
2023-05-09T09:50:20.261Z,991.22
2023-05-09T09:51:20.195Z,991.19
2023-05-09T09:52:20.295Z,991.24
2023-05-09T09:53:20.185Z,991.19
2023-05-09T09:54:20.175Z,991.36
2023-05-09T09:55:20.186Z,991.19
2023-05-09T09:56:20.209Z,991.15
2023-05-09T09:57:20.164Z,991.11
2023-05-09T09:58:20.156Z,991.17
2023-05-09T09:59:20.153Z,991.09
2023-05-09T10:00:20.144Z,991.13
2023-05-09T10:01:20.194Z,990.97
2023-05-09T10:02:20.128Z,991.06
2023-05-09T10:03:20.258Z,991.00
2023-05-09T10:04:20.142Z,991.04
2023-05-09T10:05:20.119Z,990.95
2023-05-09T10:06:20.141Z,991.02
2023-05-09T10:07:20.111Z,990.97
2023-05-09T10:08:20.203Z,991.02
2023-05-09T10:09:20.127Z,990.98
2023-05-09T10:10:20.116Z,991.08
2023-05-09T10:11:20.089Z,990.97
2023-05-09T10:12:20.083Z,991.02
2023-05-09T10:13:21.228Z,991.09
2023-05-09T10:14:20.058Z,991.01
2023-05-09T10:15:20.084Z,990.84
2023-05-09T10:16:25.927Z,990.85
2023-05-09T10:17:22.185Z,990.83
2023-05-09T10:18:21.260Z,990.90
2023-05-09T10:19:20.104Z,990.89
2023-05-09T10:20:20.025Z,990.81
2023-05-09T10:21:20.024Z,990.94
2023-05-09T10:22:20.037Z,990.81
2023-05-09T10:23:20.021Z,990.70
2023-05-09T10:24:20.091Z,990.83
2023-05-09T10:25:20.019Z,990.64
2023-05-09T10:26:19.978Z,990.79
2023-05-09T10:27:19.998Z,990.74
2023-05-09T10:28:19.979Z,990.63
2023-05-09T10:29:19.984Z,990.61
2023-05-09T10:30:20.003Z,990.53
2023-05-09T10:31:19.968Z,990.52
2023-05-09T10:32:19.969Z,990.65
2023-05-09T10:33:19.944Z,990.54
2023-05-09T10:34:19.950Z,990.41
2023-05-09T10:35:19.939Z,990.59
2023-05-09T10:36:19.914Z,990.53
2023-05-09T10:37:19.925Z,990.53
2023-05-09T10:38:19.915Z,990.39
2023-05-09T10:39:20.124Z,990.39
2023-05-09T10:40:20.089Z,990.37
2023-05-09T10:41:20.251Z,990.32
2023-05-09T10:42:19.889Z,990.34
2023-05-09T10:43:19.887Z,990.20
2023-05-09T10:44:19.867Z,990.29
2023-05-09T10:45:19.868Z,990.33
2023-05-09T10:46:19.872Z,990.24
2023-05-09T10:47:19.900Z,990.22
2023-05-09T10:48:19.837Z,990.20
2023-05-09T10:49:19.829Z,990.18
2023-05-09T10:50:19.841Z,990.21
2023-05-09T10:51:19.822Z,990.16
2023-05-09T10:52:19.818Z,990.24
2023-05-09T10:53:19.792Z,990.17
2023-05-09T10:54:19.792Z,990.18
2023-05-09T10:55:19.784Z,990.24
2023-05-09T10:56:19.912Z,990.13
2023-05-09T10:57:19.773Z,990.11
2023-05-09T10:58:19.787Z,990.17
2023-05-09T10:59:19.760Z,990.17
2023-05-09T11:00:19.760Z,990.09
2023-05-09T11:01:19.811Z,990.14
2023-05-09T11:02:19.733Z,990.26
2023-05-09T11:03:19.805Z,990.20
2023-05-09T11:04:19.724Z,990.19
2023-05-09T11:05:19.765Z,990.14
2023-05-09T11:06:19.713Z,990.15
2023-05-09T11:07:19.735Z,990.09
2023-05-09T11:08:19.695Z,990.19
2023-05-09T11:09:19.695Z,990.24
2023-05-09T11:10:19.692Z,990.14
2023-05-09T11:11:19.688Z,990.10
2023-05-09T11:12:19.778Z,990.15
2023-05-09T11:13:19.770Z,990.11
2023-05-09T11:14:19.674Z,990.14
2023-05-09T11:15:19.660Z,990.14
2023-05-09T11:16:19.686Z,990.24
2023-05-09T11:17:19.668Z,990.19
2023-05-09T11:18:19.637Z,990.07
2023-05-09T11:19:19.634Z,990.07
2023-05-09T11:20:19.624Z,990.09
2023-05-09T11:21:19.621Z,990.22
2023-05-09T11:22:19.642Z,990.09
2023-05-09T11:23:19.675Z,990.00
2023-05-09T11:24:19.606Z,990.19
2023-05-09T11:25:19.592Z,990.12
2023-05-09T11:26:19.580Z,990.07
2023-05-09T11:27:19.580Z,990.16
2023-05-09T11:28:19.689Z,990.20
2023-05-09T11:29:19.584Z,990.22
2023-05-09T11:30:19.589Z,990.12
2023-05-09T11:31:19.597Z,990.13
2023-05-09T11:32:19.540Z,990.10
2023-05-09T11:33:19.546Z,990.08
2023-05-09T11:34:19.565Z,990.12
2023-05-09T11:35:19.546Z,990.03
2023-05-09T11:36:19.522Z,989.98
2023-05-09T11:37:19.527Z,990.01
2023-05-09T11:38:19.509Z,989.96
2023-05-09T11:39:19.540Z,989.99
2023-05-09T11:40:19.502Z,989.98
2023-05-09T11:41:19.489Z,989.89
2023-05-09T11:42:19.482Z,989.92
2023-05-09T11:43:19.476Z,989.97
2023-05-09T11:44:19.569Z,989.96
2023-05-09T11:45:19.520Z,989.91
2023-05-09T11:46:19.523Z,989.81
2023-05-09T11:47:19.448Z,990.06
2023-05-09T11:48:19.459Z,989.83
2023-05-09T11:49:19.486Z,989.89
2023-05-09T11:50:19.503Z,989.78
2023-05-09T11:51:19.460Z,989.85
2023-05-09T11:52:19.418Z,989.77
2023-05-09T11:53:19.411Z,989.86
2023-05-09T11:54:19.395Z,989.84
2023-05-09T11:55:19.744Z,989.79
2023-05-09T11:56:19.382Z,989.68
2023-05-09T11:57:19.400Z,989.82
2023-05-09T11:58:19.368Z,989.77
2023-05-09T11:59:19.365Z,989.68
2023-05-09T12:00:19.366Z,989.71
2023-05-09T12:01:19.367Z,989.70
2023-05-09T12:02:19.406Z,989.72
2023-05-09T12:03:19.529Z,989.71
2023-05-09T12:04:19.410Z,989.66
2023-05-09T12:05:19.373Z,989.67
2023-05-09T12:06:19.314Z,989.66
2023-05-09T12:07:19.316Z,989.69
2023-05-09T12:08:19.298Z,989.60
2023-05-09T12:09:19.301Z,989.61
2023-05-09T12:10:19.333Z,989.70
2023-05-09T12:11:19.306Z,989.56
2023-05-09T12:12:19.287Z,989.52
2023-05-09T12:13:19.320Z,989.61
2023-05-09T12:14:19.280Z,989.50
2023-05-09T12:15:19.588Z,989.56
2023-05-09T12:16:19.406Z,989.53
2023-05-09T12:17:19.270Z,989.40
2023-05-09T12:18:19.257Z,989.57
2023-05-09T12:19:19.233Z,989.35
2023-05-09T12:20:19.249Z,989.36
2023-05-09T12:21:19.230Z,989.46
2023-05-09T12:22:19.247Z,989.32
2023-05-09T12:23:19.217Z,989.39
2023-05-09T12:24:19.233Z,989.54
2023-05-09T12:25:19.205Z,989.31
2023-05-09T12:26:19.206Z,989.31
2023-05-09T12:27:19.181Z,989.30
2023-05-09T12:28:19.177Z,989.30